Time;durP1;ratioP1;P1;durP2;ratioP2;P2;SDS_P1;SDS_P2;PMS_P1;PMS_P2;Temp;Humidity;BMP_temperature;BMP_pressure;BME280_temperature;BME280_humidity;BME280_pressure;Samples;Min_cycle;Max_cycle;Signal;HPM_P1;HPM_P2
2023/08/06 00:00:45;;;;;;;6.63;3.92;;;;;;;14.90;100.00;100261.06;5026134;28;20448;-71
2023/08/06 00:03:10;;;;;;;6.40;3.38;;;;;;;14.90;100.00;100265.69;5026206;28;20025;-72
2023/08/06 00:05:35;;;;;;;5.43;3.38;;;;;;;14.89;100.00;100267.56;5025804;28;20045;-71
2023/08/06 00:08:01;;;;;;;5.82;3.30;;;;;;;14.90;100.00;100261.06;5006044;28;20394;-71
2023/08/06 00:10:26;;;;;;;5.38;3.80;;;;;;;14.91;100.00;100264.69;5021472;28;20085;-71
2023/08/06 00:12:52;;;;;;;3.28;2.63;;;;;;;14.92;100.00;100264.53;5007416;28;20040;-71
2023/08/06 00:15:17;;;;;;;3.90;3.00;;;;;;;14.93;100.00;100265.41;4990253;28;20037;-71
2023/08/06 00:17:42;;;;;;;5.10;4.00;;;;;;;14.92;100.00;100261.81;5007750;28;20033;-71
2023/08/06 00:20:08;;;;;;;6.90;3.72;;;;;;;14.93;100.00;100265.41;5007826;28;20312;-71
2023/08/06 00:22:37;;;;;;;6.10;3.67;;;;;;;14.92;100.00;100253.59;5010545;28;20033;-71
2023/08/06 00:25:04;;;;;;;10.70;3.30;;;;;;;14.93;100.00;100251.72;5025882;28;20033;-72
2023/08/06 00:27:29;;;;;;;4.30;3.35;;;;;;;14.94;100.00;100251.53;5009673;28;20114;-70
2023/08/06 00:29:55;;;;;;;5.10;3.28;;;;;;;14.95;100.00;100252.41;5024107;28;20096;-71
2023/08/06 00:32:21;;;;;;;3.88;3.47;;;;;;;14.93;100.00;100251.72;5017523;28;20553;-71
2023/08/06 00:34:49;;;;;;;6.88;3.78;;;;;;;14.95;100.00;100249.66;5005484;28;20046;-70
2023/08/06 00:37:17;;;;;;;7.13;3.95;;;;;;;14.93;100.00;100254.44;4989389;28;20026;-71
2023/08/06 00:39:43;;;;;;;6.35;3.47;;;;;;;14.95;100.00;100246.91;5006232;28;20044;-71
2023/08/06 00:42:10;;;;;;;12.15;3.85;;;;;;;14.92;100.00;100242.63;5007646;28;20029;-71
2023/08/06 00:44:36;;;;;;;5.38;3.38;;;;;;;14.94;100.00;100248.81;5005080;28;20029;-71
2023/08/06 00:47:01;;;;;;;5.30;3.30;;;;;;;14.95;100.00;100249.66;5007512;28;20029;-70
2023/08/06 00:49:27;;;;;;;3.92;3.13;;;;;;;14.95;100.00;100238.69;5011928;28;20041;-70
2023/08/06 00:51:52;;;;;;;7.43;3.47;;;;;;;14.93;100.00;100238.88;5024976;28;20033;-71
2023/08/06 00:54:18;;;;;;;4.97;3.22;;;;;;;14.93;100.00;100238.00;5010166;28;20030;-71
2023/08/06 00:56:43;;;;;;;9.85;3.63;;;;;;;14.91;100.00;100240.88;5019298;28;20551;-71
2023/08/06 00:59:10;;;;;;;5.22;3.13;;;;;;;14.93;100.00;100243.50;5006150;28;20045;-70
2023/08/06 01:01:36;;;;;;;6.63;3.35;;;;;;;14.93;100.00;100238.00;5005967;28;20116;-72
2023/08/06 01:04:02;;;;;;;6.43;3.45;;;;;;;14.94;100.00;100237.84;5010594;28;20156;-71
2023/08/06 01:06:48;;;;;;;4.18;2.95;;;;;;;14.97;100.00;100245.75;5005708;28;20131;-70
2023/08/06 01:09:32;;;;;;;3.88;2.83;;;;;;;14.94;100.00;100236.97;5010616;28;20042;-71
2023/08/06 01:12:24;;;;;;;4.85;3.00;;;;;;;14.94;100.00;100236.97;5007383;28;20458;-70
2023/08/06 01:15:11;;;;;;;4.13;3.00;;;;;;;14.89;100.00;100231.13;5009791;28;20073;-71
2023/08/06 01:17:37;;;;;;;6.32;3.40;;;;;;;14.87;100.00;100239.47;5010633;28;20072;-71
2023/08/06 01:20:03;;;;;;;5.43;2.85;;;;;;;14.86;100.00;100242.38;5009243;28;20469;-70
2023/08/06 01:22:29;;;;;;;5.28;2.65;;;;;;;14.88;100.00;100237.63;5009543;28;20148;-71
2023/08/06 01:24:55;;;;;;;8.43;3.42;;;;;;;14.87;100.00;100233.97;5009802;28;20121;-70
2023/08/06 01:27:43;;;;;;;5.85;3.13;;;;;;;14.89;100.00;100239.31;5020693;28;20029;-71
2023/08/06 01:30:25;;;;;;;4.72;3.05;;;;;;;14.89;100.00;100239.31;5010695;28;20393;-70
2023/08/06 01:32:58;;;;;;;6.05;3.60;;;;;;;14.87;100.00;100239.47;5010512;28;20544;-71
2023/08/06 01:35:26;;;;;;;5.53;3.45;;;;;;;14.89;100.00;100231.97;5009394;28;20030;-71
2023/08/06 01:37:52;;;;;;;5.18;3.40;;;;;;;14.89;100.00;100236.59;5009470;28;20032;-71
2023/08/06 01:40:17;;;;;;;6.60;3.40;;;;;;;14.89;100.00;100242.06;5008844;28;20038;-71
2023/08/06 01:42:43;;;;;;;6.75;3.58;;;;;;;14.88;100.00;100240.34;5015393;28;20025;-71
2023/08/06 01:45:09;;;;;;;6.35;3.03;;;;;;;14.86;100.00;100236.88;5045074;28;20041;-71
2023/08/06 01:47:35;;;;;;;3.65;2.88;;;;;;;14.86;100.00;100234.16;5029751;28;20566;-71
2023/08/06 01:50:00;;;;;;;6.32;3.10;;;;;;;14.84;100.00;100231.56;5029752;28;20041;-71
2023/08/06 01:52:26;;;;;;;4.68;3.38;;;;;;;14.84;100.00;100236.19;5013504;28;20040;-70
2023/08/06 01:54:51;;;;;;;4.72;3.10;;;;;;;14.81;100.00;100234.59;5008610;28;20121;-70
2023/08/06 01:57:17;;;;;;;7.18;3.10;;;;;;;14.78;100.00;100233.06;5022735;28;20417;-71
2023/08/06 01:59:42;;;;;;;5.47;3.85;;;;;;;14.75;100.00;100232.50;4991480;28;20060;-71
2023/08/06 02:02:07;;;;;;;5.72;3.97;;;;;;;14.71;100.00;100231.06;5008445;28;20072;-71
2023/08/06 02:04:33;;;;;;;7.28;3.60;;;;;;;14.70;100.00;100238.44;5009466;28;20076;-71
2023/08/06 02:06:58;;;;;;;4.80;3.22;;;;;;;14.71;100.00;100242.03;5010921;28;20045;-71
2023/08/06 02:09:23;;;;;;;5.80;3.10;;;;;;;14.70;100.00;100234.84;5027903;28;20099;-71
2023/08/06 02:11:49;;;;;;;5.47;3.00;;;;;;;14.71;100.00;100233.81;5013342;28;20044;-71
2023/08/06 02:14:14;;;;;;;4.63;3.03;;;;;;;14.70;100.00;100232.09;5024504;28;20034;-71
2023/08/06 02:16:40;;;;;;;6.90;3.10;;;;;;;14.72;100.00;100238.25;5009409;28;20041;-71
2023/08/06 02:19:05;;;;;;;5.82;3.30;;;;;;;14.71;100.00;100233.81;5009208;28;20042;-70
2023/08/06 02:21:30;;;;;;;6.28;3.00;;;;;;;14.74;100.00;100236.25;5017591;28;20501;-71
2023/08/06 02:23:56;;;;;;;5.75;3.20;;;;;;;14.72;100.00;100236.38;5028869;28;20049;-71
2023/08/06 02:26:21;;;;;;;5.85;2.95;;;;;;;14.72;100.00;100233.66;5017217;28;20402;-71
2023/08/06 02:28:46;;;;;;;6.28;3.22;;;;;;;14.69;100.00;100225.75;4991498;28;20124;-70
2023/08/06 02:31:13;;;;;;;4.47;3.00;;;;;;;14.69;100.00;100238.59;5007613;28;20034;-71
2023/08/06 02:33:39;;;;;;;7.93;2.95;;;;;;;14.67;100.00;100233.25;5014838;28;20476;-70
2023/08/06 02:36:04;;;;;;;5.70;3.53;;;;;;;14.68;100.00;100234.97;5027374;28;20034;-70
2023/08/06 02:38:31;;;;;;;4.68;3.05;;;;;;;14.67;100.00;100230.50;5015040;28;20095;-70
2023/08/06 02:40:56;;;;;;;4.85;3.10;;;;;;;14.69;100.00;100233.97;5016332;28;20132;-70
2023/08/06 02:43:22;;;;;;;6.72;3.38;;;;;;;14.71;100.00;100237.41;5023385;28;20036;-70
2023/08/06 02:45:48;;;;;;;4.72;3.05;;;;;;;14.73;100.00;100231.75;5013601;28;20038;-70
2023/08/06 02:48:14;;;;;;;7.35;3.35;;;;;;;14.73;100.00;100223.56;5008696;28;20433;-70
2023/08/06 02:50:41;;;;;;;10.35;3.08;;;;;;;14.73;100.00;100226.28;4991334;28;20026;-70
2023/08/06 02:53:07;;;;;;;4.57;2.95;;;;;;;14.75;100.00;100227.00;5022376;28;20030;-71
2023/08/06 02:55:34;;;;;;;6.97;3.22;;;;;;;14.75;100.00;100227.00;5025809;28;20049;-70
2023/08/06 02:58:00;;;;;;;6.35;2.88;;;;;;;14.73;100.00;100227.16;5025042;28;20124;-70
2023/08/06 03:00:27;;;;;;;9.38;2.75;;;;;;;14.73;100.00;100223.56;5040233;28;20061;-70
2023/08/06 03:02:53;;;;;;;6.00;2.78;;;;;;;14.73;100.00;100220.81;5007732;28;20510;-70
2023/08/06 03:05:24;;;;;;;5.32;2.97;;;;;;;14.72;100.00;100217.22;5007669;28;20037;-70
2023/08/06 03:07:50;;;;;;;3.63;2.47;;;;;;;14.74;100.00;100228.91;5025763;28;20030;-70
2023/08/06 03:10:20;;;;;;;4.93;2.95;;;;;;;14.76;100.00;100223.25;5024812;28;20495;-70
2023/08/06 03:12:47;;;;;;;6.32;3.33;;;;;;;14.75;100.00;100230.63;5017431;28;20458;-70
2023/08/06 03:15:13;;;;;;;4.63;2.60;;;;;;;14.77;100.00;100231.31;5006883;28;20121;-70
2023/08/06 03:17:41;;;;;;;3.72;2.90;;;;;;;14.77;100.00;100228.56;5018639;28;20030;-71
2023/08/06 03:20:08;;;;;;;6.68;3.30;;;;;;;14.77;100.00;100227.72;5007022;28;20026;-71
2023/08/06 03:22:34;;;;;;;4.63;3.30;;;;;;;14.76;100.00;100223.25;5007014;28;20557;-71
2023/08/06 03:25:00;;;;;;;4.53;2.70;;;;;;;14.78;100.00;100227.59;5006661;28;20116;-70
2023/08/06 03:27:26;;;;;;;5.45;2.80;;;;;;;14.77;100.00;100224.97;5020311;28;20049;-70
2023/08/06 03:29:52;;;;;;;4.53;3.05;;;;;;;14.76;100.00;100226.84;5007115;28;20068;-71
2023/08/06 03:32:20;;;;;;;3.88;2.67;;;;;;;14.78;100.00;100226.69;4991125;28;20068;-71
2023/08/06 03:34:45;;;;;;;6.75;2.90;;;;;;;14.79;100.00;100233.91;5020767;28;20475;-71
2023/08/06 03:37:11;;;;;;;4.13;3.05;;;;;;;14.80;100.00;100232.91;5006164;28;20055;-70
2023/08/06 03:39:36;;;;;;;8.35;3.28;;;;;;;14.79;100.00;100232.03;5015374;28;20029;-71
2023/08/06 03:42:02;;;;;;;6.72;3.20;;;;;;;14.79;100.00;100233.91;5009690;28;20045;-71
2023/08/06 03:44:28;;;;;;;6.90;3.20;;;;;;;14.80;100.00;100235.63;5005593;28;20046;-70
2023/08/06 03:46:53;;;;;;;5.38;2.75;;;;;;;14.77;100.00;100225.84;5008304;28;20397;-71
2023/08/06 03:49:19;;;;;;;6.75;3.00;;;;;;;14.82;100.00;100232.72;5024985;28;20038;-71
2023/08/06 03:51:46;;;;;;;3.72;2.70;;;;;;;14.80;100.00;100228.28;5025150;28;20377;-71
2023/08/06 03:54:12;;;;;;;7.78;3.47;;;;;;;14.79;100.00;100228.44;5027423;28;20496;-71
2023/08/06 03:56:37;;;;;;;4.88;3.13;;;;;;;14.81;100.00;100237.34;5025183;28;20033;-71
2023/08/06 03:59:02;;;;;;;3.55;3.00;;;;;;;14.78;100.00;100234.91;5005747;28;20046;-71
2023/08/06 04:01:28;;;;;;;5.22;3.10;;;;;;;14.79;100.00;100239.41;5026174;28;20037;-71
2023/08/06 04:03:53;;;;;;;5.68;2.83;;;;;;;14.79;100.00;100243.00;5025515;28;20645;-71
2023/08/06 04:06:19;;;;;;;4.50;2.67;;;;;;;14.78;100.00;100238.53;5017849;28;20094;-71
2023/08/06 04:08:44;;;;;;;6.55;3.00;;;;;;;14.77;100.00;100239.53;5009954;28;20073;-71
2023/08/06 04:11:09;;;;;;;6.10;3.05;;;;;;;14.74;100.00;100237.09;5000890;28;20025;-71
2023/08/06 04:13:35;;;;;;;5.00;3.10;;;;;;;14.74;100.00;100237.09;5015058;28;20049;-71
2023/08/06 04:16:04;;;;;;;7.32;3.20;;;;;;;14.74;100.00;100245.31;5008310;28;20034;-71
2023/08/06 04:18:31;;;;;;;6.32;3.33;;;;;;;14.76;100.00;100245.16;5006015;28;20034;-71
2023/08/06 04:20:57;;;;;;;4.93;3.10;;;;;;;14.75;100.00;100246.19;5006821;28;20446;-71
2023/08/06 04:23:23;;;;;;;4.35;3.05;;;;;;;14.74;100.00;100248.06;5026574;28;20044;-71
2023/08/06 04:25:48;;;;;;;5.68;3.17;;;;;;;14.72;100.00;100250.06;5023301;28;20079;-71
2023/08/06 04:28:14;;;;;;;4.13;3.22;;;;;;;14.74;100.00;100248.06;5019869;28;20047;-71
2023/08/06 04:30:39;;;;;;;6.95;3.45;;;;;;;14.75;100.00;100246.19;5007476;28;20041;-71
2023/08/06 04:33:06;;;;;;;8.45;3.10;;;;;;;14.75;100.00;100258.00;5007647;28;20025;-71
2023/08/06 04:35:33;;;;;;;3.63;2.85;;;;;;;14.74;100.00;100256.28;5024619;28;20053;-71
2023/08/06 04:37:58;;;;;;;4.43;2.88;;;;;;;14.75;100.00;100258.00;5020736;28;20431;-70
2023/08/06 04:40:23;;;;;;;7.55;2.92;;;;;;;14.77;100.00;100255.94;5008376;28;20136;-71
2023/08/06 04:42:49;;;;;;;4.18;3.28;;;;;;;14.77;100.00;100261.44;5011964;28;20037;-71
2023/08/06 04:45:14;;;;;;;6.45;3.10;;;;;;;14.82;100.00;100265.59;5027006;28;20056;-71
2023/08/06 04:47:39;;;;;;;5.28;3.47;;;;;;;14.83;100.00;100264.56;5025499;28;20037;-71
2023/08/06 04:50:05;;;;;;;6.57;3.10;;;;;;;14.86;100.00;100264.28;5029533;28;20456;-71
2023/08/06 04:52:32;;;;;;;5.38;3.35;;;;;;;14.87;100.00;100255.91;5030646;28;20505;-71
2023/08/06 04:54:57;;;;;;;6.22;3.20;;;;;;;14.91;100.00;100267.41;5017793;28;20109;-71
2023/08/06 04:57:22;;;;;;;5.95;3.10;;;;;;;14.96;100.00;100259.59;5026328;28;20366;-70
2023/08/06 04:59:48;;;;;;;5.20;3.13;;;;;;;14.97;100.00;100259.47;5030187;28;20076;-71
2023/08/06 05:02:14;;;;;;;6.22;3.38;;;;;;;15.03;100.00;100263.47;5018472;28;20524;-71
2023/08/06 05:04:39;;;;;;;5.07;3.20;;;;;;;15.04;100.00;100266.03;5017341;28;20467;-71
2023/08/06 05:07:05;;;;;;;6.60;3.08;;;;;;;15.11;100.00;100266.28;5025282;28;20102;-71
2023/08/06 05:09:30;;;;;;;8.07;3.15;;;;;;;15.15;100.00;100269.56;5021144;28;20033;-70
2023/08/06 05:11:56;;;;;;;5.00;3.55;;;;;;;15.17;100.00;100271.16;5004209;28;20132;-71
2023/08/06 05:14:21;;;;;;;4.47;3.22;;;;;;;15.21;100.00;100264.34;5025884;28;20045;-71
2023/08/06 05:16:47;;;;;;;7.80;4.07;;;;;;;15.26;100.00;100272.09;5016496;28;20045;-68
2023/08/06 05:19:12;;;;;;;5.22;3.42;;;;;;;15.30;100.00;100276.25;5010542;28;20374;-69
2023/08/06 05:21:37;;;;;;;5.22;3.28;;;;;;;15.34;100.00;100279.53;5014605;28;20095;-69
2023/08/06 05:24:03;;;;;;;6.03;3.60;;;;;;;15.39;100.00;100279.91;5021695;28;20030;-69
2023/08/06 05:26:28;;;;;;;7.15;3.08;;;;;;;15.46;100.00;100287.38;5032155;28;20041;-69
2023/08/06 05:28:54;;;;;;;5.50;3.60;;;;;;;15.45;100.00;100285.66;5010511;28;20038;-69
2023/08/06 05:31:19;;;;;;;5.97;4.10;;;;;;;15.49;100.00;100299.91;5028315;28;20070;-68
2023/08/06 05:33:44;;;;;;;8.55;3.20;;;;;;;15.52;100.00;100294.09;5009968;28;20410;-68
2023/08/06 05:36:10;;;;;;;7.68;3.97;;;;;;;15.57;100.00;100298.13;5012751;28;20065;-68
2023/08/06 05:38:35;;;;;;;6.03;3.95;;;;;;;15.57;100.00;100302.72;5014676;28;20041;-68
2023/08/06 05:41:00;;;;;;;8.00;3.63;;;;;;;15.61;100.00;100306.88;5015692;28;20038;-68
2023/08/06 05:43:26;;;;;;;7.93;4.28;;;;;;;15.63;100.00;100317.69;5017571;28;20622;-68
2023/08/06 05:45:51;;;;;;;6.57;3.60;;;;;;;15.70;100.00;100321.56;5008561;28;20036;-69
2023/08/06 05:48:17;;;;;;;8.10;4.00;;;;;;;15.77;100.00;100322.66;5007841;28;20120;-69
2023/08/06 05:50:42;;;;;;;5.30;3.80;;;;;;;15.83;100.00;100333.00;5011453;28;20474;-71
2023/08/06 05:53:08;;;;;;;8.73;4.95;;;;;;;15.82;100.00;100329.41;5023781;28;20037;-69
2023/08/06 05:55:34;;;;;;;8.52;4.93;;;;;;;15.74;100.00;100323.81;5027786;28;20021;-71
2023/08/06 05:57:59;;;;;;;6.95;4.43;;;;;;;15.73;100.00;100329.47;5017113;28;20493;-70
2023/08/06 06:00:24;;;;;;;5.47;3.90;;;;;;;15.75;100.00;100333.78;5025957;28;20036;-69
2023/08/06 06:02:50;;;;;;;11.20;4.80;;;;;;;15.75;100.00;100343.88;5024149;28;20112;-70
2023/08/06 06:05:15;;;;;;;9.27;4.63;;;;;;;15.73;100.00;100344.06;5015518;28;20048;-70
2023/08/06 06:07:41;;;;;;;8.52;4.78;;;;;;;15.70;100.00;100341.59;5021483;28;20464;-69
2023/08/06 06:10:07;;;;;;;8.70;4.82;;;;;;;15.70;100.00;100344.34;5017404;28;20034;-70
2023/08/06 06:12:32;;;;;;;6.93;4.28;;;;;;;15.72;100.00;100346.97;5005172;28;20037;-70
2023/08/06 06:14:58;;;;;;;6.22;4.43;;;;;;;15.75;100.00;100354.84;5029502;28;20484;-69
2023/08/06 06:17:23;;;;;;;12.20;4.68;;;;;;;15.78;100.00;100362.78;5025249;28;20037;-70
2023/08/06 06:19:49;;;;;;;7.40;4.90;;;;;;;15.78;100.00;100363.63;5027241;28;20030;-70
2023/08/06 06:22:14;;;;;;;8.23;5.15;;;;;;;15.79;100.00;100365.34;5029335;28;20492;-70
2023/08/06 06:24:40;;;;;;;9.30;4.78;;;;;;;15.76;100.00;100362.94;5022405;28;20128;-70
2023/08/06 06:27:05;;;;;;;11.05;4.90;;;;;;;15.77;100.00;100364.66;5011296;28;20497;-70
2023/08/06 06:29:30;;;;;;;7.13;4.38;;;;;;;15.79;100.00;100367.25;5039393;28;20492;-69
2023/08/06 06:31:56;;;;;;;6.65;4.85;;;;;;;15.83;100.00;100371.41;5029714;28;20092;-70
2023/08/06 06:34:22;;;;;;;5.80;4.10;;;;;;;15.86;100.00;100378.47;5011290;28;20033;-70
2023/08/06 06:36:47;;;;;;;8.45;3.88;;;;;;;15.87;100.00;100374.69;5028127;28;20235;-70
2023/08/06 06:39:13;;;;;;;9.85;3.92;;;;;;;15.85;100.00;100390.44;5027114;28;20040;-70
2023/08/06 06:41:38;;;;;;;10.75;4.10;;;;;;;15.85;100.00;100382.19;5024643;28;20094;-69
2023/08/06 06:44:10;;;;;;;8.80;4.38;;;;;;;15.79;100.00;100394.66;5007986;28;20041;-70
2023/08/06 06:46:36;;;;;;;6.07;4.15;;;;;;;15.79;100.00;100402.91;5008916;28;20034;-69
2023/08/06 06:49:01;;;;;;;6.40;4.10;;;;;;;15.78;100.00;100402.03;5012847;28;20038;-70
2023/08/06 06:51:27;;;;;;;5.82;4.00;;;;;;;15.73;100.00;100404.38;5011329;28;20065;-69
2023/08/06 06:53:52;;;;;;;6.30;3.55;;;;;;;15.64;100.00;100404.47;5026035;28;20033;-70
2023/08/06 06:56:17;;;;;;;2.97;2.10;;;;;;;15.53;100.00;100405.50;5018584;28;20041;-70
2023/08/06 06:58:43;;;;;;;2.20;1.58;;;;;;;15.44;100.00;100406.44;5022760;28;20123;-70
2023/08/06 07:01:09;;;;;;;1.40;1.20;;;;;;;15.37;100.00;100416.28;5028406;28;20029;-70
2023/08/06 07:03:36;;;;;;;1.63;1.10;;;;;;;15.26;100.00;100422.81;5026939;28;20102;-69
2023/08/06 07:06:01;;;;;;;1.38;1.27;;;;;;;15.16;100.00;100420.13;5026912;28;20426;-69
2023/08/06 07:08:27;;;;;;;2.35;1.20;;;;;;;15.10;100.00;100428.94;5027200;28;20132;-70
2023/08/06 07:11:04;;;;;;;1.48;1.38;;;;;;;15.03;100.00;100438.78;5012994;28;20049;-69
2023/08/06 07:13:29;;;;;;;1.63;1.20;;;;;;;14.92;100.00;100437.09;5014769;28;20095;-69
2023/08/06 07:15:55;;;;;;;1.60;1.30;;;;;;;14.82;100.00;100439.00;5018849;28;20049;-69
2023/08/06 07:18:22;;;;;;;1.73;1.00;;;;;;;14.76;100.00;100443.19;5026650;28;20523;-69
2023/08/06 07:20:51;;;;;;;1.35;1.00;;;;;;;14.67;100.00;100446.81;5026339;28;20037;-70
2023/08/06 07:23:17;;;;;;;1.38;0.90;;;;;;;14.62;100.00;100459.22;5006669;28;20650;-69
2023/08/06 07:25:42;;;;;;;1.00;0.90;;;;;;;14.54;100.00;100463.53;5007415;28;20137;-69
2023/08/06 07:28:08;;;;;;;1.25;0.93;;;;;;;14.51;100.00;100455.63;5008326;28;20124;-69
2023/08/06 07:30:33;;;;;;;2.42;1.20;;;;;;;14.51;100.00;100465.72;5004900;28;20034;-69
2023/08/06 07:32:58;;;;;;;1.75;1.10;;;;;;;14.49;100.00;100476.81;5010303;28;20396;-69
2023/08/06 07:35:24;;;;;;;1.23;1.13;;;;;;;14.49;100.00;100470.47;5010090;28;20130;-69
2023/08/06 07:37:49;;;;;;;2.92;1.85;;;;;;;14.45;100.00;100483.53;5006296;28;20143;-69
2023/08/06 07:40:14;;;;;;;3.35;2.17;;;;;;;14.43;100.00;100484.72;5007996;28;20502;-69
2023/08/06 07:42:40;;;;;;;2.40;2.20;;;;;;;14.42;100.00;100486.59;5004375;28;20123;-70
2023/08/06 07:45:07;;;;;;;5.03;2.42;;;;;;;14.36;100.00;100483.53;5008855;28;20439;-69
2023/08/06 07:47:32;;;;;;;3.05;2.65;;;;;;;14.33;100.00;100478.38;5018284;28;20140;-69
2023/08/06 07:49:57;;;;;;;4.57;2.80;;;;;;;14.22;100.00;100496.69;5010063;28;20654;-69
2023/08/06 07:52:23;;;;;;;3.40;2.85;;;;;;;14.20;100.00;100497.81;5009220;28;20481;-68
2023/08/06 07:54:48;;;;;;;3.75;2.60;;;;;;;14.18;100.00;100497.97;5007147;28;20102;-69
2023/08/06 07:57:14;;;;;;;5.22;3.55;;;;;;;14.18;100.00;100495.22;5009541;28;20105;-69
2023/08/06 07:59:40;;;;;;;4.40;3.20;;;;;;;14.12;100.00;100489.44;5010892;28;20030;-69
2023/08/06 08:02:05;;;;;;;5.15;3.80;;;;;;;14.13;100.00;100496.63;5007811;28;20152;-69
2023/08/06 08:04:31;;;;;;;5.65;3.22;;;;;;;14.15;100.00;100494.66;5013113;28;20022;-69
2023/08/06 08:06:56;;;;;;;7.75;3.90;;;;;;;14.12;100.00;100490.31;5007723;28;20028;-68
2023/08/06 08:09:22;;;;;;;7.35;4.00;;;;;;;14.13;100.00;100494.81;5020701;28;20112;-68
2023/08/06 08:11:47;;;;;;;8.07;4.15;;;;;;;14.04;100.00;100496.50;5011239;28;20108;-68
2023/08/06 08:14:12;;;;;;;7.82;3.78;;;;;;;13.98;100.00;100504.41;5012458;28;20111;-68
2023/08/06 08:16:38;;;;;;;7.85;4.22;;;;;;;13.94;100.00;100502.94;5011461;28;20029;-67
2023/08/06 08:19:03;;;;;;;7.57;2.80;;;;;;;13.85;100.00;100509.28;5014574;28;20118;-68
2023/08/06 08:21:29;;;;;;;6.82;3.10;;;;;;;13.81;100.00;100516.06;5009366;28;20485;-68
2023/08/06 08:23:54;;;;;;;7.68;3.17;;;;;;;13.79;100.00;100518.91;5010367;28;20084;-68
2023/08/06 08:26:20;;;;;;;4.57;3.15;;;;;;;13.80;100.00;100517.88;5021496;28;20123;-68
2023/08/06 08:28:45;;;;;;;9.07;4.22;;;;;;;13.82;100.00;100521.38;5020687;28;20104;-68
2023/08/06 08:31:11;;;;;;;6.60;3.30;;;;;;;13.79;100.00;100525.22;5018209;28;20037;-67
2023/08/06 08:33:37;;;;;;;5.05;2.95;;;;;;;13.78;100.00;100526.25;5013509;28;20504;-68
2023/08/06 08:36:03;;;;;;;4.25;3.13;;;;;;;13.85;100.00;100528.41;5014911;28;20211;-68
2023/08/06 08:38:29;;;;;;;7.22;3.13;;;;;;;13.90;100.00;100528.88;5015069;28;20072;-68
2023/08/06 08:40:54;;;;;;;5.72;2.60;;;;;;;13.94;100.00;100531.19;5012843;28;20107;-68
2023/08/06 08:43:22;;;;;;;6.30;2.78;;;;;;;13.95;100.00;100530.19;5010332;28;20049;-68
2023/08/06 08:45:50;;;;;;;5.97;2.58;;;;;;;13.98;100.00;100538.09;5021601;28;20033;-68
2023/08/06 08:48:17;;;;;;;6.25;3.03;;;;;;;14.00;100.00;100533.34;5019051;28;20064;-68
2023/08/06 08:50:44;;;;;;;5.93;2.47;;;;;;;14.09;100.00;100549.94;5010905;28;20042;-68
2023/08/06 08:53:11;;;;;;;6.20;2.33;;;;;;;14.17;100.00;100550.06;5010139;28;20042;-68
2023/08/06 08:55:38;;;;;;;4.03;1.80;;;;;;;14.21;100.00;100540.56;5019171;28;20029;-68
2023/08/06 08:58:03;;;;;;;5.45;2.65;;;;;;;14.22;100.00;100550.50;5010531;28;20408;-68
2023/08/06 09:00:29;;;;;;;4.80;2.50;;;;;;;14.27;100.00;100553.72;5012188;28;20048;-68
2023/08/06 09:02:56;;;;;;;5.07;2.55;;;;;;;14.31;100.00;100563.34;5012100;28;20033;-68
2023/08/06 09:05:23;;;;;;;6.85;2.47;;;;;;;14.35;100.00;100563.94;5011065;28;20646;-68
2023/08/06 09:07:51;;;;;;;7.45;2.38;;;;;;;14.40;100.00;100567.09;5010596;28;20030;-69
2023/08/06 09:10:21;;;;;;;4.95;2.05;;;;;;;14.44;100.00;100571.28;5006310;28;20087;-68
2023/08/06 09:12:48;;;;;;;4.07;2.40;;;;;;;14.47;100.00;100571.88;5007833;28;20484;-68
2023/08/06 09:15:13;;;;;;;5.75;2.35;;;;;;;14.51;100.00;100588.91;5008591;28;20034;-68
2023/08/06 09:17:39;;;;;;;3.45;2.42;;;;;;;14.52;100.00;100580.56;5009291;28;20106;-68
2023/08/06 09:20:12;;;;;;;6.95;2.20;;;;;;;14.54;100.00;100580.41;5029071;28;20092;-68
2023/08/06 09:22:38;;;;;;;5.65;2.40;;;;;;;14.53;100.00;100581.41;5016936;28;20054;-68
2023/08/06 09:25:09;;;;;;;6.95;2.70;;;;;;;14.52;100.00;100601.59;5013782;28;20038;-68
2023/08/06 09:27:35;;;;;;;7.03;2.40;;;;;;;14.51;100.00;100592.50;5005443;28;20033;-68
2023/08/06 09:30:00;;;;;;;5.53;2.20;;;;;;;14.50;100.00;100606.31;5015490;28;20489;-68
2023/08/06 09:32:26;;;;;;;8.07;2.50;;;;;;;14.50;100.00;100601.75;5011113;28;20041;-68
2023/08/06 09:34:56;;;;;;;8.20;2.80;;;;;;;14.51;100.00;100603.47;5018137;28;20033;-67
2023/08/06 09:37:22;;;;;;;7.40;2.78;;;;;;;14.50;100.00;100606.31;5021535;28;20112;-68
2023/08/06 09:39:47;;;;;;;5.15;2.72;;;;;;;14.50;100.00;100611.78;5013089;28;20125;-69
2023/08/06 09:42:15;;;;;;;7.35;2.75;;;;;;;14.49;100.00;100613.66;5009968;28;20096;-69
2023/08/06 09:44:40;;;;;;;7.20;2.92;;;;;;;14.53;100.00;100623.34;5018394;28;20064;-68
2023/08/06 09:47:06;;;;;;;3.85;2.42;;;;;;;14.59;100.00;100610.94;5018282;28;20112;-68
2023/08/06 09:49:31;;;;;;;4.72;2.17;;;;;;;14.67;100.00;100613.84;5015887;28;20033;-68
2023/08/06 09:51:59;;;;;;;8.13;2.50;;;;;;;14.71;100.00;100628.97;5010959;28;20033;-69
2023/08/06 09:54:26;;;;;;;4.53;2.78;;;;;;;14.69;100.00;100628.28;5016837;28;20041;-68
2023/08/06 09:56:54;;;;;;;5.10;2.63;;;;;;;14.73;100.00;100628.81;5012583;28;20041;-69
2023/08/06 09:59:19;;;;;;;7.15;2.72;;;;;;;14.69;100.00;100631.00;5014855;28;20073;-69
2023/08/06 10:01:46;;;;;;;5.28;2.63;;;;;;;14.73;100.00;100629.69;5029104;28;20161;-69
2023/08/06 10:04:15;;;;;;;4.80;2.65;;;;;;;14.77;100.00;100633.00;5016595;28;20052;-69
2023/08/06 10:06:42;;;;;;;5.65;2.30;;;;;;;14.84;100.00;100636.06;5017733;28;20038;-69
2023/08/06 10:09:09;;;;;;;7.82;2.55;;;;;;;14.86;100.00;100639.50;5022311;28;20045;-69
2023/08/06 10:11:36;;;;;;;5.20;2.67;;;;;;;14.93;100.00;100637.94;5007380;28;20465;-69
2023/08/06 10:14:08;;;;;;;3.45;2.40;;;;;;;14.95;100.00;100647.72;5014061;28;20045;-69
2023/08/06 10:16:34;;;;;;;8.02;2.88;;;;;;;14.98;100.00;100641.97;5011680;28;20029;-69
2023/08/06 10:19:02;;;;;;;7.15;2.80;;;;;;;14.97;100.00;100644.84;5008177;28;20052;-68
2023/08/06 10:21:30;;;;;;;4.13;2.83;;;;;;;14.92;100.00;100645.28;5015313;28;20534;-69
2023/08/06 10:23:55;;;;;;;6.32;2.63;;;;;;;14.94;100.00;100647.88;5015782;28;20045;-69
2023/08/06 10:26:20;;;;;;;5.32;2.88;;;;;;;14.96;100.00;100646.69;5016256;28;20053;-69
2023/08/06 10:28:46;;;;;;;7.28;3.55;;;;;;;15.00;100.00;100642.66;5009113;28;20081;-68
2023/08/06 10:31:11;;;;;;;6.22;2.30;;;;;;;15.10;100.00;100650.03;5018316;28;20120;-68
2023/08/06 10:33:44;;;;;;;4.55;2.70;;;;;;;15.12;100.00;100653.50;5010761;28;20168;-68
2023/08/06 10:36:10;;;;;;;4.05;2.67;;;;;;;15.15;100.00;100654.03;5015635;28;20088;-68
2023/08/06 10:38:52;;;;;;;5.88;3.17;;;;;;;15.22;100.00;100657.09;5013775;28;20555;-69
2023/08/06 10:41:28;;;;;;;11.75;3.00;;;;;;;15.28;100.00;100661.97;5013600;28;20389;-68
2023/08/06 10:44:10;;;;;;;8.75;2.92;;;;;;;15.28;100.00;100660.09;5018756;28;20057;-69
2023/08/06 10:46:36;;;;;;;4.70;2.97;;;;;;;15.23;100.00;100659.66;5014743;28;20126;-69
2023/08/06 10:49:04;;;;;;;7.25;3.20;;;;;;;15.29;100.00;100664.59;5010694;28;20130;-68
2023/08/06 10:51:29;;;;;;;5.95;2.63;;;;;;;15.34;100.00;100657.78;5008173;28;20038;-69
2023/08/06 10:53:55;;;;;;;6.93;2.80;;;;;;;15.34;100.00;100664.16;5006946;28;20120;-68
2023/08/06 10:56:23;;;;;;;5.18;2.95;;;;;;;15.34;100.00;100675.13;5008150;28;20041;-69
2023/08/06 10:58:50;;;;;;;5.65;3.00;;;;;;;15.28;100.00;100662.84;5008093;28;20054;-69
2023/08/06 11:01:15;;;;;;;9.10;2.83;;;;;;;15.28;100.00;100676.53;5007790;28;20118;-69
2023/08/06 11:03:46;;;;;;;4.80;2.17;;;;;;;15.21;100.00;100677.28;5019633;28;20564;-69
2023/08/06 11:06:18;;;;;;;5.03;2.30;;;;;;;15.08;100.00;100668.50;5025067;28;20540;-69
2023/08/06 11:08:47;;;;;;;;;;;;;;;15.13;100.00;100666.19;5006457;28;20037;-69
2023/08/06 11:11:14;;;;;;;3.95;2.15;;;;;;;15.14;100.00;100665.16;5006594;28;19914;-68
2023/08/06 11:13:47;;;;;;;6.72;2.40;;;;;;;15.17;100.00;100679.44;5004032;28;20033;-68